M I D A S
Marine Information and Data Acquisition System
Tripno 1085 of the Zeeleeuw from 2006-05-17 11:36:38 to 2006-05-17 14:26:43
Back to CruiseResearch ActivitiesStationsMapUnderway DataData graphs

EquipmentUnitsComment
TimeDGPSUTC
LatitudeDGPSDM.mWGS84
LongitudeDGPSDM.mWGS84
TemperatureSBE03/SBE38deg celciusITS90
ConductivitySBE21S/mITS90
SalinitySBE21 Practical Salinity Units
ChlorophylAChelsea fluorimeterg/lCalibrated in Aceton
Missing or incorrect values are displayed as -999
Sea surface data collected by the RV Zeeleeuw from 2006-05-17 07:17:38 to 2006-05-17 14:41:29
Time Latitude Longitude Temperature Conductivity Salinity ChlorophylA
2006-05-17 07:18:44 51°13.603 2°56.099 20.7458 0.060212 0.312222 20.961315
2006-05-17 07:19:43 51°13.603 2°56.099 20.7502 0.060212 0.312245 20.893896
2006-05-17 07:20:44 51°13.604 2°56.099 20.7584 0.060212 0.312245 20.893896
2006-05-17 07:21:44 51°13.603 2°56.098 20.765 0.060212 0.312245 20.893896
2006-05-17 07:22:42 51°13.603 2°56.098 20.7658 0.060212 0.312259 20.860187
2006-05-17 07:23:44 51°13.603 2°56.098 20.7647 0.060212 0.312264 20.860187
2006-05-17 07:24:44 51°13.603 2°56.099 20.7715 0.060212 0.312264 20.860187
2006-05-17 07:25:44 51°13.602 2°56.099 20.8365 0.060212 0.312268 20.860187
2006-05-17 07:26:41 51°13.601 2°56.098 20.8171 0.060212 0.312292 20.826477
2006-05-17 07:27:44 51°13.608 2°56.065 20.7757 0.060212 0.312273 20.792768
2006-05-17 07:28:44 51°13.628 2°55.975 20.8008 0.060212 0.312282 20.759059
2006-05-17 07:29:44 51°13.658 2°55.886 20.8341 0.060212 0.31231 20.759059
2006-05-17 07:30:44 51°13.697 2°55.799 20.7549 0.060212 0.31231 20.759059
2006-05-17 07:31:44 51°13.719 2°55.742 20.8437 0.060212 0.31232 20.69164
2006-05-17 07:32:42 51°13.726 2°55.754 20.8077 0.060212 0.312296 20.65793
2006-05-17 07:33:44 51°13.714 2°55.733 20.9017 0.060212 0.312329 20.65793
2006-05-17 07:34:44 51°13.759 2°55.696 20.7613 0.060212 0.312315 20.624221
2006-05-17 07:35:43 51°13.845 2°55.618 20.6609 0.060212 0.312348 20.624221
2006-05-17 07:36:44 51°13.936 2°55.546 20.7657 0.060212 0.312362 20.590512
2006-05-17 07:37:44 51°14.019 2°55.487 20.7998 0.060212 0.312367 20.556802
2006-05-17 07:38:43 51°14.116 2°55.422 20.7665 0.060212 0.312376 20.556802
2006-05-17 07:39:44 51°14.231 2°55.318 20.8634 0.060212 0.312385 20.489383
2006-05-17 07:40:44 51°14.325 2°55.142 20.7505 0.060212 0.31239 20.489383
2006-05-17 07:41:43 51°14.404 2°54.939 14.7515 1.209147 7.935333 13.34299
2006-05-17 07:42:43 51°14.466 2°54.663 14.3272 3.833365 30.930711 10.747366
2006-05-17 07:43:42 51°14.533 2°54.337 14.0974 3.949285 32.270277 9.365281
2006-05-17 07:44:42 51°14.618 2°53.999 14.0807 4.032123 33.202215 8.85964
2006-05-17 07:45:42 51°14.69 2°53.652 14.0565 3.991231 32.844382 8.421418
2006-05-17 07:46:43 51°14.77 2°53.309 14.023 4.022428 33.174183 8.522546
2006-05-17 07:47:43 51°14.747 2°52.952 14.0509 4.002825 32.992584 8.623674
2006-05-17 07:48:44 51°14.72 2°52.585 13.8967 4.027171 33.262003 8.758512
2006-05-17 07:49:44 51°14.688 2°52.224 13.8742 4.050149 33.582545 8.82593
2006-05-17 07:50:43 51°14.662 2°51.867 13.8777 4.059319 33.667418 8.893349
2006-05-17 07:51:44 51°14.641 2°51.494 13.8339 4.06891 33.79193 8.623674
2006-05-17 07:52:44 51°14.596 2°51.129 13.8178 4.072916 33.843927 8.556255
2006-05-17 07:53:43 51°14.57 2°50.764 13.7783 4.077764 33.924816 8.691093
2006-05-17 07:54:43 51°14.527 2°50.396 13.7361 4.079557 33.968627 8.758512
2006-05-17 07:55:44 51°14.482 2°50.022 13.7405 4.082614 34.026329 8.758512
2006-05-17 07:56:43 51°14.406 2°49.673 13.7558 4.078714 33.977788 8.691093
2006-05-17 07:57:44 51°14.336 2°49.307 13.7337 4.077765 33.979851 8.792221
2006-05-17 07:58:42 51°14.259 2°48.964 13.7212 4.077765 33.985978 8.724802
2006-05-17 07:59:43 51°14.163 2°48.616 13.6877 4.083036 34.063009 8.82593
2006-05-17 08:00:41 51°14.077 2°48.35 13.6372 4.089255 34.146287 8.85964
2006-05-17 08:01:42 51°14.025 2°48.18 13.6199 4.092312 34.216005 8.724802
2006-05-17 08:02:42 51°13.985 2°48.068 13.61 4.096423 34.268859 8.623674
2006-05-17 08:03:44 51°13.976 2°48.043 13.5872 4.097372 34.285998 8.589965
2006-05-17 08:04:42 51°13.97 2°48.033 13.5703 4.099796 34.332831 8.724802
2006-05-17 08:05:44 51°13.964 2°48.019 13.565 4.101272 34.354935 8.724802
2006-05-17 08:06:43 51°13.959 2°48.003 13.5811 4.100534 34.342499 8.589965
2006-05-17 08:07:44 51°13.954 2°47.984 13.5959 4.100218 34.328481 8.589965
2006-05-17 08:08:43 51°13.949 2°47.963 13.5918 4.101588 34.332312 8.522546
2006-05-17 08:09:44 51°13.945 2°47.939 13.6026 4.101272 34.326592 8.455127
2006-05-17 08:10:43 51°13.941 2°47.914 13.6219 4.100955 34.30845 8.387708
2006-05-17 08:11:44 51°13.939 2°47.883 13.6031 4.101798 34.31219 8.387708
2006-05-17 08:12:42 51°13.99 2°47.79 13.5692 4.10222 34.333388 8.589965
2006-05-17 08:13:42 51°14.067 2°47.781 13.626 4.10201 34.34593 8.556255
2006-05-17 08:14:42 51°14.106 2°47.832 13.6347 4.095263 34.244253 8.455127
2006-05-17 08:15:43 51°14.137 2°47.896 13.6434 4.09168 34.209412 8.556255
2006-05-17 08:16:42 51°14.171 2°47.955 13.6715 4.089887 34.170018 8.421418
2006-05-17 08:17:44 51°14.209 2°48.008 13.695 4.088622 34.138334 8.455127
2006-05-17 08:18:43 51°14.244 2°48.059 13.6811 4.087463 34.125469 8.623674
2006-05-17 08:19:42 51°14.273 2°48.117 13.6844 4.086514 34.117994 8.623674
2006-05-17 08:20:44 51°14.299 2°48.182 13.6943 4.083985 34.088253 8.724802
2006-05-17 08:21:43 51°14.325 2°48.242 13.7512 4.079031 34.020242 8.691093
2006-05-17 08:22:41 51°14.354 2°48.296 13.7492 4.076817 33.967623 8.623674
2006-05-17 08:23:43 51°14.385 2°48.356 13.7575 4.076606 33.966343 8.758512
2006-05-17 08:24:43 51°14.415 2°48.414 13.7706 4.07513 33.941059 8.792221
2006-05-17 08:25:44 51°14.446 2°48.475 13.7306 4.076079 33.955999 8.893349
2006-05-17 08:26:42 51°14.475 2°48.534 13.7364 4.074814 33.960557 8.893349
2006-05-17 08:27:42 51°14.503 2°48.596 13.7347 4.076817 33.980555 8.927059
2006-05-17 08:28:41 51°14.529 2°48.66 13.7417 4.074814 33.948994 8.927059
2006-05-17 08:29:43 51°14.553 2°48.728 13.7565 4.07629 33.968844 8.893349
2006-05-17 08:30:41 51°14.578 2°48.789 13.7528 4.073549 33.919567 8.758512
2006-05-17 08:31:42 51°14.603 2°48.854 13.78 4.071336 33.905099 8.82593
2006-05-17 08:32:42 51°14.628 2°48.918 13.7889 4.074076 33.913606 8.82593
2006-05-17 08:33:43 51°14.655 2°48.988 13.777 4.074814 33.915034 8.82593
2006-05-17 08:34:43 51°14.683 2°49.061 13.7784 4.075341 33.92061 8.85964
2006-05-17 08:35:43 51°14.709 2°49.135 13.7982 4.074497 33.910739 8.82593
2006-05-17 08:36:44 51°14.734 2°49.21 13.8014 4.072916 33.883172 8.82593
2006-05-17 08:37:43 51°14.759 2°49.284 13.806 4.072495 33.877901 8.85964
2006-05-17 08:38:44 51°14.785 2°49.359 13.8188 4.069965 33.840201 8.792221
2006-05-17 08:39:43 51°14.809 2°49.43 13.8227 4.068911 33.826362 8.82593
2006-05-17 08:40:43 51°14.831 2°49.499 13.8334 4.069543 33.838993 8.927059
2006-05-17 08:41:43 51°14.854 2°49.565 13.8495 4.068384 33.805261 8.82593
2006-05-17 08:42:43 51°14.88 2°49.63 13.8241 4.069332 33.816086 8.85964
2006-05-17 08:43:44 51°14.908 2°49.694 13.8732 4.068805 33.814574 8.85964
2006-05-17 08:44:43 51°14.937 2°49.754 13.8741 4.067118 33.765211 8.792221
2006-05-17 08:45:44 51°14.968 2°49.814 13.8799 4.065854 33.754837 8.792221
2006-05-17 08:46:42 51°14.996 2°49.878 13.8539 4.065537 33.740463 8.724802
2006-05-17 08:47:43 51°15.004 2°49.978 13.874 4.064589 33.767369 8.927059
2006-05-17 08:48:43 51°14.952 2°50.054 13.9367 4.064272 33.720004 8.657383
2006-05-17 08:49:43 51°14.868 2°50.046 13.9066 4.067328 33.711352 8.657383
2006-05-17 08:50:43 51°14.805 2°49.946 13.8701 4.069121 33.759527 8.792221
2006-05-17 08:51:42 51°14.763 2°49.82 13.8668 4.069648 33.812267 9.4327
2006-05-17 08:52:43 51°14.715 2°49.741 13.8364 4.068594 33.786976 9.061896
2006-05-17 08:53:44 51°14.674 2°49.699 13.8434 4.068383 33.800536 9.129315
2006-05-17 08:54:44 51°14.642 2°49.665 13.785 4.069122 33.831698 9.061896
2006-05-17 08:55:41 51°14.615 2°49.638 13.7786 4.069649 33.858242 9.297862
2006-05-17 08:56:44 51°14.547 2°49.65 13.8383 4.070176 33.871943 9.533828
2006-05-17 08:57:44 51°14.418 2°49.696 13.858 4.07007 33.835094 9.297862
2006-05-17 08:58:43 51°14.275 2°49.641 13.847 4.069226 33.7834 8.82593
2006-05-17 08:59:44 51°14.164 2°49.46 13.7749 4.081137 33.952753 8.994477
2006-05-17 09:00:43 51°14.099 2°49.314 13.774 4.081875 33.987466 8.792221
2006-05-17 09:01:44 51°14.087 2°49.159 13.7579 4.084721 34.015968 8.691093
2006-05-17 09:02:43 51°14.127 2°49.053 13.7704 4.085459 34.033045 8.724802
2006-05-17 09:03:44 51°14.18 2°49.031 13.7954 4.082824 33.994925 8.724802
2006-05-17 09:04:43 51°14.231 2°49.061 13.8404 4.079451 33.943196 8.758512
2006-05-17 09:05:43 51°14.282 2°49.082 13.871 4.076604 33.868008 8.522546
2006-05-17 09:06:42 51°14.328 2°49.097 13.8599 4.075023 33.839835 8.589965
2006-05-17 09:07:42 51°14.371 2°49.121 13.834 4.073337 33.837703 8.927059
2006-05-17 09:08:44 51°14.408 2°49.169 13.8267 4.07144 33.84443 9.095606
2006-05-17 09:09:44 51°14.442 2°49.226 13.821 4.071967 33.854732 9.196734
2006-05-17 09:10:43 51°14.473 2°49.282 13.8508 4.071651 33.843006 9.297862
2006-05-17 09:11:44 51°14.504 2°49.341 13.9071 4.072494 33.835286 8.927059
2006-05-17 09:12:44 51°14.537 2°49.395 13.9946 4.064377 33.676002 8.758512
2006-05-17 09:13:43 51°14.569 2°49.448 13.9878 4.064377 33.645866 8.792221
2006-05-17 09:14:44 51°14.602 2°49.503 14.0158 4.063744 33.631998 8.657383
2006-05-17 09:15:44 51°14.631 2°49.56 14.0189 4.059739 33.580316 8.623674
2006-05-17 09:16:44 51°14.659 2°49.618 14.0022 4.06153 33.586849 8.556255
2006-05-17 09:17:42 51°14.688 2°49.672 14.0506 4.059738 33.565645 8.455127
2006-05-17 09:18:42 51°14.719 2°49.726 14.0447 4.057841 33.532823 8.488836
2006-05-17 09:19:44 51°14.75 2°49.784 14.0429 4.060897 33.550361 8.488836
2006-05-17 09:20:43 51°14.772 2°49.847 13.954 4.071227 33.673025 8.657383
2006-05-17 09:21:43 51°14.795 2°49.913 13.9506 4.070595 33.727482 8.85964
2006-05-17 09:22:44 51°14.82 2°49.978 13.9473 4.069963 33.740435 9.028187
2006-05-17 09:23:44 51°14.844 2°50.042 13.971 4.068382 33.706339 8.792221
2006-05-17 09:24:44 51°14.866 2°50.107 13.9588 4.067433 33.68684 8.792221
2006-05-17 09:25:43 51°14.876 2°50.179 13.9579 4.065114 33.663394 8.792221
2006-05-17 09:26:43 51°14.87 2°50.253 14.0453 4.063323 33.642148 8.724802
2006-05-17 09:27:43 51°14.826 2°50.321 14.0396 4.066589 33.600851 8.455127
2006-05-17 09:28:44 51°14.749 2°50.344 14.0493 4.064903 33.601298 8.353999
2006-05-17 09:29:44 51°14.677 2°50.298 14.049 4.061425 33.560548 8.320289
2006-05-17 09:30:43 51°14.633 2°50.196 14.0496 4.066378 33.607575 8.353999
2006-05-17 09:31:43 51°14.634 2°50.091 14.0323 4.065957 33.603686 8.455127
2006-05-17 09:32:43 51°14.661 2°50.027 14.0418 4.064692 33.596686 8.421418
2006-05-17 09:33:44 51°14.681 2°49.995 13.9943 4.066378 33.604241 8.455127
2006-05-17 09:34:44 51°14.692 2°49.971 13.9184 4.066695 33.667294 8.758512
2006-05-17 09:35:43 51°14.7 2°49.95 13.8937 4.063429 33.696073 8.85964
2006-05-17 09:36:43 51°14.73 2°50.034 13.9135 4.061005 33.678332 8.792221
2006-05-17 09:37:44 51°14.771 2°50.286 14.0435 4.061742 33.644936 8.758512
2006-05-17 09:38:43 51°14.791 2°50.577 14.0524 4.06269 33.591546 8.792221
2006-05-17 09:39:43 51°14.809 2°50.878 14.0471 4.063111 33.551468 8.488836
2006-05-17 09:40:44 51°14.811 2°51.186 14.0608 4.059633 33.539364 8.758512
2006-05-17 09:41:43 51°14.808 2°51.484 14.0743 4.054152 33.469575 8.522546
2006-05-17 09:42:41 51°14.787 2°51.778 14.0109 4.057841 33.540146 8.893349
2006-05-17 09:43:44 51°14.771 2°52.098 13.9981 4.046669 33.438431 9.129315
2006-05-17 09:44:44 51°14.746 2°52.402 13.9825 4.040135 33.400063 9.39899
2006-05-17 09:45:43 51°14.727 2°52.702 13.9962 4.036446 33.37134 9.567537
2006-05-17 09:46:42 51°14.701 2°53.004 13.9648 4.031177 33.332003 9.837212
2006-05-17 09:47:43 51°14.685 2°53.318 13.9826 4.028226 33.295513 10.612529
2006-05-17 09:48:41 51°14.643 2°53.614 14.0862 4.013365 33.163122 10.578819
2006-05-17 09:49:43 51°14.61 2°53.942 14.1323 4.014839 33.064402 9.601247
2006-05-17 09:50:43 51°14.569 2°54.256 14.1979 4.001665 32.944062 10.208016
2006-05-17 09:51:43 51°14.526 2°54.564 14.1956 3.992601 32.798552 10.342853
2006-05-17 09:52:42 51°14.449 2°54.852 14.1676 3.982588 32.692006 10.073178
2006-05-17 09:53:43 51°14.338 2°55.123 14.3906 3.941065 32.222659 10.443982
2006-05-17 09:54:44 51°14.241 2°55.286 14.4041 3.798702 30.862618 12.163161
2006-05-17 09:55:44 51°14.165 2°55.384 14.3765 3.76625 30.58629 13.208153
2006-05-17 09:56:44 51°14.094 2°55.451 14.4507 3.746126 30.402834 12.466546
2006-05-17 09:57:43 51°14.019 2°55.502 14.4236 3.70451 29.990024 11.421554
2006-05-17 09:58:42 51°13.924 2°55.566 14.4111 3.686178 29.811754 11.893486
2006-05-17 09:59:43 51°13.823 2°55.636 14.4322 3.718207 30.14751 11.69123
2006-05-17 10:00:43 51°13.74 2°55.714 15.0929 3.580517 28.810401 13.882341
2006-05-17 10:01:43 51°13.682 2°55.819 14.8568 3.133605 24.483699 13.545247
2006-05-17 10:02:43 51°13.647 2°55.91 14.4928 3.385772 26.903703 12.972187
2006-05-17 10:03:43 51°13.622 2°55.98 14.5523 3.607168 29.083678 12.668802
2006-05-17 10:04:44 51°13.606 2°56.052 14.8964 3.552603 28.556308 11.151879
2006-05-17 10:05:44 51°13.604 2°56.091 14.8531 3.147501 24.63848 12.163161
2006-05-17 10:06:43 51°13.602 2°56.096 14.641 3.498673 27.968585 11.387845
2006-05-17 10:07:43 51°13.602 2°56.099 14.5393 3.546177 28.448532 13.039606
2006-05-17 10:08:43 51°13.602 2°56.097 14.4878 3.58926 28.878896 15.803777
2006-05-17 10:09:43 51°13.602 2°56.098 14.4186 3.647831 29.451923 13.983469
2006-05-17 10:10:41 51°13.603 2°56.098 14.3987 3.671956 29.700856 13.410409
2006-05-17 10:11:42 51°13.603 2°56.098 14.3745 3.701139 29.993172 11.455264
2006-05-17 10:12:42 51°13.603 2°56.098 14.379 3.713361 30.126878 11.354136
2006-05-17 10:13:42 51°13.603 2°56.097 14.3837 3.709357 30.084879 11.286717
2006-05-17 10:14:43 51°13.603 2°56.097 14.3922 3.709778 30.083956 11.320426
2006-05-17 10:15:43 51°13.603 2°56.098 14.3954 3.711253 30.094298 11.354136
2006-05-17 10:16:43 51°13.603 2°56.098 14.3934 3.713782 30.114723 11.219298
2006-05-17 10:17:43 51°13.603 2°56.097 14.3721 3.722526 30.200651 11.017042
2006-05-17 10:18:43 51°13.603 2°56.097 14.3491 3.734432 30.319336 10.915913
2006-05-17 10:19:42 51°13.602 2°56.097 14.3203 3.758876 30.567061 10.713657
2006-05-17 10:20:43 51°13.603 2°56.098 14.3025 3.771414 30.69917 10.679947
2006-05-17 10:21:43 51°13.603 2°56.098 14.2887 3.779317 30.78525 10.578819
2006-05-17 10:22:42 51°13.603 2°56.099 14.2832 3.782478 30.818136 10.578819
2006-05-17 10:23:42 51°13.603 2°56.099 14.2819 3.783215 30.829067 10.5114
2006-05-17 10:24:43 51°13.603 2°56.099 14.2789 3.782056 30.820988 10.54511
2006-05-17 10:25:41 51°13.604 2°56.099 14.2887 3.790169 30.8988 10.477691
2006-05-17 10:26:41 51°13.604 2°56.099 14.2988 3.772257 30.708008 10.578819
2006-05-17 10:27:43 51°13.603 2°56.099 14.2953 3.778895 30.776587 10.679947
2006-05-17 10:28:43 51°13.604 2°56.099 14.2923 3.780265 30.794448 10.713657
2006-05-17 10:29:42 51°13.603 2°56.099 14.2951 3.779001 30.781781 10.713657
2006-05-17 10:30:43 51°13.604 2°56.099 14.2971 3.776366 30.758522 10.713657
2006-05-17 10:31:43 51°13.604 2°56.099 14.3236 3.769518 30.689847 10.781076
2006-05-17 10:32:43 51°13.605 2°56.099 14.335 3.748761 30.483404 10.915913
2006-05-17 10:33:43 51°13.604 2°56.099 14.3377 3.743809 30.432656 10.983332
2006-05-17 10:34:43 51°13.604 2°56.098 14.3406 3.746443 30.454069 10.949623
2006-05-17 10:35:43 51°13.604 2°56.099 14.3409 3.74834 30.468815 10.915913
2006-05-17 10:36:42 51°13.605 2°56.099 14.3228 3.751922 30.502391 10.848494
2006-05-17 10:37:43 51°13.605 2°56.099 14.3313 3.757085 30.564078 10.915913
2006-05-17 10:38:43 51°13.605 2°56.099 14.3275 3.757401 30.559127 10.848494
2006-05-17 10:39:42 51°13.603 2°56.098 14.3734 3.758033 30.567848 10.814785
2006-05-17 10:40:43 51°13.603 2°56.098 14.3814 3.722737 30.214999 10.983332
2006-05-17 10:41:43 51°13.604 2°56.098 14.382 3.71926 30.178306 10.983332
2006-05-17 10:42:43 51°13.606 2°56.099 14.3803 3.722105 30.200998 10.983332
2006-05-17 10:43:43 51°13.603 2°56.097 14.3773 3.727794 30.257657 10.915913
2006-05-17 10:44:43 51°13.603 2°56.097 14.3637 3.733273 30.313636 10.882204
2006-05-17 10:45:43 51°13.603 2°56.098 14.3483 3.742966 30.407713 10.814785
2006-05-17 10:46:43 51°13.603 2°56.098 14.3321 3.747707 30.454725 10.781076
2006-05-17 10:47:43 51°13.603 2°56.098 14.3205 3.758876 30.573669 10.781076
2006-05-17 10:48:42 51°13.603 2°56.098 14.2984 3.764671 30.635723 10.781076
2006-05-17 10:49:43 51°13.603 2°56.098 14.2935 3.772257 30.718278 10.713657
2006-05-17 10:50:43 51°13.605 2°56.099 14.2885 3.774997 30.748534 10.646238
2006-05-17 10:51:42 51°13.603 2°56.098 14.2807 3.779633 30.794779 10.612529
2006-05-17 10:52:43 51°13.605 2°56.099 14.2733 3.783953 30.838787 10.54511
2006-05-17 10:53:42 51°13.603 2°56.098 14.2612 3.791118 30.912878 10.477691
2006-05-17 10:54:42 51°13.603 2°56.098 14.2475 3.796808 30.971204 10.5114
2006-05-17 10:55:43 51°13.604 2°56.099 14.2415 3.801233 31.021757 10.54511
2006-05-17 10:56:42 51°13.605 2°56.1 14.2415 3.804816 31.056735 10.5114
2006-05-17 10:57:43 51°13.605 2°56.1 14.2529 3.799969 31.005389 10.54511
2006-05-17 10:58:43 51°13.605 2°56.1 14.2705 3.800074 31.00207 10.578819
2006-05-17 10:59:42 51°13.604 2°56.1 14.2985 3.791012 30.905836 10.646238
2006-05-17 11:00:42 51°13.604 2°56.099 14.2989 3.781318 30.800359 10.679947
2006-05-17 11:01:43 51°13.603 2°56.099 14.3022 3.783004 30.813208 10.713657
2006-05-17 11:02:43 51°13.603 2°56.098 14.3009 3.784585 30.827528 10.612529
2006-05-17 11:03:43 51°13.603 2°56.098 14.3002 3.787008 30.849486 10.578819
2006-05-17 11:04:43 51°13.602 2°56.098 14.2896 3.78901 30.871879 10.578819
2006-05-17 11:05:43 51°13.602 2°56.098 14.2769 3.79038 30.892804 10.5114
2006-05-17 11:06:43 51°13.603 2°56.098 14.2768 3.795859 30.948578 10.54511
2006-05-17 11:07:43 51°13.601 2°56.097 14.2709 3.798915 30.978735 10.477691
2006-05-17 11:08:43 51°13.602 2°56.098 14.2743 3.788378 30.884989 10.747366
2006-05-17 11:09:43 51°13.602 2°56.098 14.2834 3.786587 30.863276 10.781076
2006-05-17 11:10:43 51°13.602 2°56.099 14.2833 3.78469 30.841224 10.747366
2006-05-17 11:11:42 51°13.602 2°56.098 14.2916 3.78311 30.825078 10.781076
2006-05-17 11:12:43 51°13.602 2°56.098 14.2911 3.783004 30.821091 10.747366
2006-05-17 11:13:43 51°13.603 2°56.099 14.2932 3.783531 30.824045 10.814785
2006-05-17 11:14:43 51°13.603 2°56.099 14.2825 3.785217 30.836289 10.747366
2006-05-17 11:15:43 51°13.603 2°56.099 14.2729 3.787219 30.86597 10.814785
2006-05-17 11:16:42 51°13.603 2°56.099 14.2703 3.787641 30.875868 10.814785
2006-05-17 11:17:43 51°13.602 2°56.099 14.2717 3.786271 30.863448 10.713657
2006-05-17 11:18:42 51°13.603 2°56.099 14.2687 3.789959 30.895064 10.781076
2006-05-17 11:19:43 51°13.602 2°56.1 14.2653 3.792277 30.919738 10.747366
2006-05-17 11:20:43 51°13.602 2°56.101 14.2639 3.794173 30.941206 10.713657
2006-05-17 11:21:43 51°13.602 2°56.101 14.2564 3.796386 30.96311 10.646238
2006-05-17 11:22:43 51°13.601 2°56.101 14.2513 3.799863 30.998325 10.612529
2006-05-17 11:23:43 51°13.6 2°56.1 14.3387 3.792698 30.925388 10.814785
2006-05-17 11:24:44 51°13.604 2°56.071 14.3711 3.734538 30.336959 11.017042
2006-05-17 11:25:44 51°13.617 2°55.988 14.4077 3.702825 30.015413 11.69123
2006-05-17 11:26:44 51°13.651 2°55.883 14.3917 3.706828 30.051478 12.028324
2006-05-17 11:27:44 51°13.695 2°55.781 14.3658 3.714308 30.115336 12.533965
2006-05-17 11:28:43 51°13.712 2°55.759 14.4159 3.745495 30.423981 12.668802
2006-05-17 11:29:44 51°13.71 2°55.743 14.524 3.636243 29.321685 12.635093
2006-05-17 11:30:42 51°13.737 2°55.737 14.4938 3.674695 29.686531 12.635093
2006-05-17 11:31:42 51°13.804 2°55.662 14.7018 3.6492 29.441755 12.567674
2006-05-17 11:32:43 51°13.929 2°55.558 14.5022 3.573774 28.672464 12.702512
2006-05-17 11:33:42 51°14.066 2°55.469 14.5719 3.704299 29.968181 12.331708
2006-05-17 11:34:43 51°14.171 2°55.389 14.734 3.659418 29.45624 12.80364
2006-05-17 11:35:42 51°14.274 2°55.259 14.9027 3.608429 28.870566 12.365418
2006-05-17 11:36:42 51°14.359 2°55.063 15.0246 3.580091 28.521912 11.758648
2006-05-17 11:37:43 51°14.438 2°54.83 14.776 3.641715 28.994039 11.320426
2006-05-17 11:38:42 51°14.524 2°54.554 14.5751 3.890478 31.499217 10.915913
2006-05-17 11:39:43 51°14.607 2°54.219 14.5724 3.958555 32.143277 9.938341
2006-05-17 11:40:42 51°14.682 2°53.889 14.5221 3.957292 32.198397 10.54511
2006-05-17 11:41:42 51°14.717 2°53.534 14.3642 3.947807 32.151371 10.814785
2006-05-17 11:42:43 51°14.723 2°53.169 14.2194 3.941802 32.200883 10.882204
2006-05-17 11:43:43 51°14.719 2°52.806 14.1611 3.934955 32.289576 10.713657
2006-05-17 11:44:42 51°14.724 2°52.449 14.1443 3.938854 32.366801 10.376563
2006-05-17 11:45:43 51°14.685 2°52.08 14.2239 3.946968 32.384748 9.803503
2006-05-17 11:46:43 51°14.659 2°51.712 14.2229 3.964884 32.546714 9.938341
2006-05-17 11:47:43 51°14.634 2°51.342 14.1843 3.973841 32.608742 9.702375
2006-05-17 11:48:42 51°14.603 2°50.978 14.2552 3.981535 32.718524 9.702375
2006-05-17 11:49:42 51°14.569 2°50.607 14.2222 3.990492 32.730129 9.736084
2006-05-17 11:50:43 51°14.513 2°50.235 14.2155 3.993549 32.782642 9.736084
2006-05-17 11:51:43 51°14.464 2°49.866 14.2448 3.995868 32.823297 9.769794
2006-05-17 11:52:42 51°14.394 2°49.512 14.2889 3.996394 32.787346 9.466409
2006-05-17 11:53:42 51°14.316 2°49.157 14.2859 3.998818 32.78238 9.39899
2006-05-17 11:54:42 51°14.231 2°48.807 14.2914 4.010305 32.880305 9.466409
2006-05-17 11:55:42 51°14.15 2°48.458 14.161 4.027169 33.084087 10.073178
2006-05-17 11:56:43 51°14.08 2°48.212 14.1942 4.033282 33.204328 10.208016
2006-05-17 11:57:43 51°14.026 2°48.067 14.2311 4.035811 33.189501 9.769794
2006-05-17 11:58:43 51°14 2°48.003 14.1255 4.038551 33.19236 9.601247
2006-05-17 11:59:44 51°13.995 2°47.997 14.04 4.040134 33.331867 10.915913
2006-05-17 12:00:43 51°13.989 2°47.987 14.1479 4.03634 33.310805 10.477691
2006-05-17 12:01:42 51°13.984 2°47.973 14.1549 4.038974 33.26582 10.275435
2006-05-17 12:02:41 51°13.979 2°47.957 14.2068 4.03929 33.2582 10.174306
2006-05-17 12:03:43 51°13.975 2°47.937 14.2476 4.041924 33.241002 9.97205
2006-05-17 12:04:44 51°13.972 2°47.914 14.2986 4.04498 33.223791 9.870922
2006-05-17 12:05:43 51°13.98 2°47.863 14.2433 4.047087 33.217572 9.803503
2006-05-17 12:06:43 51°14.047 2°47.797 14.1761 4.043927 33.292908 10.309144
2006-05-17 12:07:41 51°14.114 2°47.844 14.1954 4.041397 33.24273 9.938341
2006-05-17 12:08:42 51°14.142 2°47.925 14.2036 4.041397 33.251924 10.106888
2006-05-17 12:09:42 51°14.153 2°48.003 14.1891 4.04203 33.254445 10.140597
2006-05-17 12:10:42 51°14.155 2°48.083 14.2095 4.042557 33.251401 10.140597
2006-05-17 12:11:42 51°14.151 2°48.159 14.1982 4.043716 33.257444 10.140597
2006-05-17 12:12:43 51°14.148 2°48.239 14.2149 4.044243 33.26228 10.140597
2006-05-17 12:13:42 51°14.15 2°48.315 14.3805 4.042555 33.173456 9.803503
2006-05-17 12:14:43 51°14.158 2°48.392 14.3713 4.036968 33.048783 9.601247
2006-05-17 12:15:43 51°14.171 2°48.465 14.4124 4.031172 33.006868 9.39899
2006-05-17 12:16:42 51°14.19 2°48.532 14.3827 4.027377 32.934037 9.331571
2006-05-17 12:17:42 51°14.211 2°48.6 14.312 4.02411 32.92879 9.533828
2006-05-17 12:18:43 51°14.231 2°48.673 14.3068 4.017893 32.932845 9.702375
2006-05-17 12:19:43 51°14.251 2°48.744 14.3279 4.015047 32.911364 9.634956
2006-05-17 12:20:43 51°14.277 2°48.813 14.2672 4.01705 32.93097 9.870922
2006-05-17 12:21:43 51°14.305 2°48.881 14.2915 4.01705 32.961469 9.938341
2006-05-17 12:22:43 51°14.338 2°48.943 14.3125 4.017155 32.935175 9.769794
2006-05-17 12:23:43 51°14.378 2°49 14.2801 4.016523 32.919671 9.634956
2006-05-17 12:24:43 51°14.415 2°49.058 14.213 4.018948 33.005503 9.938341
2006-05-17 12:25:42 51°14.446 2°49.122 14.2292 4.013784 32.964701 9.904631
2006-05-17 12:26:43 51°14.477 2°49.191 14.2602 4.010306 32.914012 9.837212
2006-05-17 12:27:44 51°14.509 2°49.258 14.2862 4.008514 32.876222 9.702375
2006-05-17 12:28:42 51°14.543 2°49.32 14.3011 4.010937 32.893213 9.702375
2006-05-17 12:29:43 51°14.58 2°49.383 14.2785 4.009778 32.874191 9.668665
2006-05-17 12:30:41 51°14.618 2°49.441 14.303 4.008092 32.861361 9.668665
2006-05-17 12:31:43 51°14.661 2°49.499 14.2716 4.008724 32.867143 9.702375
2006-05-17 12:32:43 51°14.701 2°49.557 14.2301 4.007249 32.862064 9.837212
2006-05-17 12:33:43 51°14.733 2°49.627 14.2095 4.007039 32.894483 9.904631
2006-05-17 12:34:42 51°14.759 2°49.702 14.1601 4.006828 32.930227 9.870922
2006-05-17 12:35:43 51°14.783 2°49.783 14.1987 4.009358 32.984033 9.837212
2006-05-17 12:36:43 51°14.803 2°49.866 14.2475 4.007039 32.899025 9.870922
2006-05-17 12:37:43 51°14.812 2°49.956 14.2855 4.005036 32.857357 9.837212
2006-05-17 12:38:43 51°14.798 2°50.06 14.3414 4.001452 32.80647 9.702375
2006-05-17 12:39:44 51°14.759 2°50.155 14.3718 3.997552 32.70641 9.668665
2006-05-17 12:40:42 51°14.703 2°50.211 14.4344 3.996919 32.662775 9.668665
2006-05-17 12:41:43 51°14.631 2°50.215 14.2945 3.996603 32.649643 9.702375
2006-05-17 12:42:43 51°14.569 2°50.208 14.3678 3.994813 32.773529 9.904631
2006-05-17 12:43:43 51°14.531 2°50.217 14.3063 3.994496 32.681096 9.634956
2006-05-17 12:44:42 51°14.509 2°50.231 14.081 3.995867 32.782525 9.870922
2006-05-17 12:45:44 51°14.493 2°50.25 14.3252 4.004195 32.995371 10.241725
2006-05-17 12:46:43 51°14.429 2°50.266 14.4322 4.002083 32.725895 9.634956
2006-05-17 12:47:44 51°14.376 2°50.169 14.3205 4.004823 32.729677 9.634956
2006-05-17 12:48:43 51°14.361 2°50.054 14.2522 4.007881 32.859433 10.073178
2006-05-17 12:49:44 51°14.357 2°49.939 14.355 4.008408 32.864899 9.837212
2006-05-17 12:50:43 51°14.357 2°49.847 14.3971 4.011674 32.835939 9.736084
2006-05-17 12:51:43 51°14.36 2°49.767 14.3776 4.0161 32.853754 9.634956
2006-05-17 12:52:44 51°14.356 2°49.695 14.3712 4.020106 32.910982 9.736084
2006-05-17 12:53:43 51°14.344 2°49.626 14.3601 4.023373 32.926583 9.736084
2006-05-17 12:54:42 51°14.325 2°49.559 14.2809 4.02527 32.953612 9.769794
2006-05-17 12:55:43 51°14.303 2°49.489 14.3071 4.024533 33.002003 9.769794
2006-05-17 12:56:42 51°14.28 2°49.422 14.3133 4.025692 32.995718 9.803503
2006-05-17 12:57:43 51°14.252 2°49.36 14.3061 4.027694 33.018576 9.837212
2006-05-17 12:58:42 51°14.223 2°49.304 14.3566 4.026324 33.003448 9.803503
2006-05-17 12:59:43 51°14.192 2°49.249 14.3818 4.027272 32.979028 9.736084
2006-05-17 13:00:42 51°14.162 2°49.194 14.3384 4.027799 32.972177 9.736084
2006-05-17 13:01:43 51°14.133 2°49.134 14.3257 4.028221 33.001964 9.803503
2006-05-17 13:02:42 51°14.104 2°49.076 14.3076 4.0278 33.014992 9.803503
2006-05-17 13:03:43 51°14.074 2°49.015 14.293 4.028959 33.045101 9.870922
2006-05-17 13:04:43 51°14.046 2°48.954 14.3222 4.028433 33.044834 9.803503
2006-05-17 13:05:42 51°14.019 2°48.893 14.3529 4.027589 33.002025 9.736084
2006-05-17 13:06:42 51°13.992 2°48.833 14.3801 4.031382 33.001012 9.702375
2006-05-17 13:07:44 51°13.965 2°48.77 14.3913 4.034966 33.03309 9.702375
2006-05-17 13:08:43 51°13.938 2°48.71 14.3862 4.036863 33.04133 9.702375
2006-05-17 13:09:44 51°13.91 2°48.65 14.3889 4.039076 33.054402 9.702375
2006-05-17 13:10:44 51°13.882 2°48.592 14.3351 4.040762 33.078891 9.769794
2006-05-17 13:11:41 51°13.856 2°48.537 14.3658 4.040763 33.120527 9.904631
2006-05-17 13:12:44 51°13.828 2°48.474 14.3549 4.045084 33.13333 9.904631
2006-05-17 13:13:42 51°13.8 2°48.416 14.3548 4.048457 33.163504 9.870922
2006-05-17 13:14:42 51°13.771 2°48.356 14.3177 4.049616 33.205424 9.938341
2006-05-17 13:15:42 51°13.741 2°48.297 14.2811 4.051724 33.232557 9.938341
2006-05-17 13:16:44 51°13.713 2°48.234 14.286 4.051303 33.261428 9.97205
2006-05-17 13:17:44 51°13.688 2°48.173 14.2724 4.053517 33.28105 9.870922
2006-05-17 13:18:42 51°13.662 2°48.116 14.2692 4.055203 33.30175 9.904631
2006-05-17 13:19:42 51°13.637 2°48.056 14.2737 4.057206 33.320103 9.870922
2006-05-17 13:20:42 51°13.611 2°47.996 14.2845 4.059208 33.345028 10.005759
2006-05-17 13:21:43 51°13.583 2°47.934 14.3167 4.062054 33.36257 9.938341
2006-05-17 13:22:44 51°13.556 2°47.871 14.3158 4.067007 33.379701 9.803503
2006-05-17 13:23:42 51°13.528 2°47.811 14.3316 4.07038 33.399422 9.837212
2006-05-17 13:24:44 51°13.497 2°47.748 14.3367 4.075017 33.434661 9.803503
2006-05-17 13:25:43 51°13.47 2°47.689 14.32 4.077441 33.458838 9.769794
2006-05-17 13:26:43 51°13.44 2°47.631 14.3167 4.079338 33.478851 9.769794
2006-05-17 13:27:41 51°13.413 2°47.575 14.3217 4.080709 33.497995 9.837212
2006-05-17 13:28:43 51°13.386 2°47.511 14.342 4.083554 33.519455 9.870922
2006-05-17 13:29:42 51°13.363 2°47.45 14.2327 4.083977 33.560966 10.005759
2006-05-17 13:30:43 51°13.341 2°47.383 14.2585 4.07955 33.554081 10.005759
2006-05-17 13:31:43 51°13.321 2°47.319 14.2667 4.081658 33.560195 9.97205
2006-05-17 13:32:42 51°13.301 2°47.256 14.2683 4.083028 33.568801 9.97205
2006-05-17 13:33:43 51°13.281 2°47.19 14.278 4.085136 33.578881 9.97205
2006-05-17 13:34:43 51°13.261 2°47.126 14.2897 4.087455 33.591553 9.97205
2006-05-17 13:35:42 51°13.241 2°47.063 14.3221 4.09009 33.602488 9.904631
2006-05-17 13:36:42 51°13.222 2°47.001 14.2927 4.094727 33.627809 9.904631
2006-05-17 13:37:43 51°13.215 2°46.917 14.2755 4.096414 33.666467 10.073178
2006-05-17 13:38:42 51°13.26 2°46.834 14.2476 4.101684 33.735434 9.938341
2006-05-17 13:39:43 51°13.342 2°46.847 14.2835 4.104003 33.759393 9.870922
2006-05-17 13:40:44 51°13.393 2°46.971 14.3398 4.107165 33.769131 9.870922
2006-05-17 13:41:44 51°13.394 2°47.119 14.2794 4.097783 33.638622 10.005759
2006-05-17 13:42:43 51°13.389 2°47.265 14.2949 4.089036 33.617319 10.140597
2006-05-17 13:43:43 51°13.409 2°47.386 14.3281 4.091354 33.594241 10.005759
2006-05-17 13:44:42 51°13.441 2°47.471 14.3042 4.092197 33.59602 9.97205
2006-05-17 13:45:42 51°13.472 2°47.54 14.2758 4.088192 33.58178 10.073178
2006-05-17 13:46:44 51°13.502 2°47.603 14.2495 4.08208 33.566051 10.208016
2006-05-17 13:47:42 51°13.535 2°47.676 14.2546 4.081237 33.552356 10.174306
2006-05-17 13:48:44 51°13.573 2°47.809 14.236 4.078918 33.540996 10.275435
2006-05-17 13:49:43 51°13.612 2°47.931 14.2706 4.076283 33.530698 10.241725
2006-05-17 13:50:44 51°13.656 2°48.018 14.2711 4.07955 33.523002 10.039469
2006-05-17 13:51:44 51°13.696 2°48.083 14.2258 4.076915 33.516005 10.073178
2006-05-17 13:52:42 51°13.732 2°48.135 14.1951 4.070697 33.496595 10.241725
2006-05-17 13:53:43 51°13.768 2°48.186 14.1758 4.067325 33.487437 10.309144
2006-05-17 13:54:44 51°13.802 2°48.236 14.2253 4.067535 33.477469 10.342853
2006-05-17 13:55:42 51°13.832 2°48.282 14.2846 4.071645 33.476891 10.241725
2006-05-17 13:56:44 51°13.862 2°48.332 14.2835 4.074596 33.474268 10.174306
2006-05-17 13:57:44 51°13.888 2°48.38 14.291 4.074385 33.467719 10.174306
2006-05-17 13:58:44 51°13.913 2°48.429 14.3154 4.073858 33.458933 10.140597
2006-05-17 13:59:42 51°13.936 2°48.473 14.3502 4.076914 33.457302 10.106888
2006-05-17 14:00:44 51°13.959 2°48.52 14.3599 4.079022 33.455548 10.073178
2006-05-17 14:01:42 51°13.98 2°48.565 14.3479 4.079654 33.45476 10.039469
2006-05-17 14:02:43 51°14.001 2°48.611 14.3359 4.077652 33.452213 10.073178
2006-05-17 14:03:44 51°14.022 2°48.657 14.3282 4.076176 33.446595 10.039469
2006-05-17 14:04:44 51°14.042 2°48.705 14.3276 4.074701 33.44295 10.073178
2006-05-17 14:05:44 51°14.06 2°48.767 14.3369 4.07586 33.443699 10.106888
2006-05-17 14:06:44 51°14.078 2°48.841 14.3178 4.075439 33.437207 10.039469
2006-05-17 14:07:44 51°14.097 2°48.927 14.33 4.074912 33.435669 10.005759
2006-05-17 14:08:42 51°14.118 2°49.019 14.2088 4.073647 33.435269 10.073178
2006-05-17 14:09:44 51°14.149 2°49.137 14.2679 4.064479 33.435526 10.208016
2006-05-17 14:10:42 51°14.188 2°49.292 14.2516 4.069537 33.42788 10.241725
2006-05-17 14:11:44 51°14.252 2°49.578 14.2401 4.064162 33.409543 10.376563
2006-05-17 14:12:44 51°14.325 2°49.913 14.251 4.061211 33.385761 10.376563
2006-05-17 14:13:44 51°14.402 2°50.272 14.2313 4.058892 33.357251 10.443982
2006-05-17 14:14:43 51°14.475 2°50.628 14.2517 4.054255 33.316035 10.443982
2006-05-17 14:15:42 51°14.548 2°50.982 14.2177 4.051725 33.281027 10.679947
2006-05-17 14:16:43 51°14.629 2°51.348 14.2105 4.046034 33.257711 10.679947
2006-05-17 14:17:44 51°14.694 2°51.719 14.55 4.043821 33.244627 23.320973
2006-05-17 14:18:42 51°14.753 2°52.074 14.7408 4.043821 33.243315 22.511947
2006-05-17 14:19:42 51°14.795 2°52.446 14.9772 4.044032 33.238689 22.107435
2006-05-17 14:20:44 51°14.837 2°52.831 15.1856 4.044453 33.230098 21.905178
2006-05-17 14:21:41 51°14.84 2°53.186 15.338 4.045296 33.216211 21.837759
2006-05-17 14:22:44 51°14.801 2°53.565 15.5748 4.046982 33.21072 21.837759
2006-05-17 14:23:43 51°14.762 2°53.918 15.7527 4.049616 33.213919 21.837759
2006-05-17 14:24:43 51°14.708 2°54.267 15.8785 4.052673 33.217709 21.905178
2006-05-17 14:25:44 51°14.604 2°54.586 16.0454 4.056045 33.227653 21.905178
2006-05-17 14:26:43 51°14.477 2°54.858 16.2802 4.059523 33.236596 21.972597
2006-05-17 14:27:44 51°14.34 2°55.113 16.4471 4.063 33.246185 22.006306
2006-05-17 14:28:43 51°14.241 2°55.295 16.6171 4.066478 33.254464 22.006306
2006-05-17 14:29:44 51°14.151 2°55.396 16.8036 4.069851 33.263731 22.006306
2006-05-17 14:30:42 51°14.066 2°55.458 16.9652 4.073118 33.27138 22.040016
2006-05-17 14:31:44 51°13.974 2°55.521 17.1206 4.07649 33.278684 22.006306
2006-05-17 14:32:44 51°13.875 2°55.591 17.2429 4.079652 33.285364 22.040016
2006-05-17 14:33:43 51°13.785 2°55.665 17.4612 4.082919 33.292351 22.040016
2006-05-17 14:34:44 51°13.734 2°55.744 17.6143 4.08608 33.299675 22.040016
2006-05-17 14:35:44 51°13.699 2°55.816 17.7578 4.089242 33.304397 22.040016
2006-05-17 14:36:44 51°13.662 2°55.895 17.8766 4.092298 33.310108 22.040016
2006-05-17 14:37:44 51°13.628 2°55.977 17.9741 4.095354 33.315167 22.006306
2006-05-17 14:38:42 51°13.61 2°56.045 18.1019 4.098516 33.321182 22.006306
2006-05-17 14:39:43 51°13.602 2°56.089 18.2222 4.101572 33.327534 22.006306
2006-05-17 14:40:44 51°13.602 2°56.096 18.4105 4.104523 33.331633 21.972597